EPBY

Bydgoszcz Ignacy Jan Paderewski Airport

Bydgoszcz, Poland
METAR EPBY 192000Z 24005KT CAVOK 19/12 Q1020
Observed Flight Rules
Jun-19 @ 20:00 UTC (19 minutes ago) Visual Flight Rules
Wind Visibility Clouds
240° at 5 knots 10,000+ meters
  • Clear skies
Temperatures Readings
Current 19°C / 66°F
Dewpoint 12°C / 54°F
Humidity 64%
Altimeter 30.12" Hg
Pressure 1020 hPa
Elevation 71
METAR EPBY 192000Z 24005KT CAVOK 19/12 Q1020
Observed Flight Rules
Jun-19 @ 20:00 UTC
(19 minutes ago)
VFR
Wind Visibility
240° at 5 knots 10,000+ meters
Clouds
  • Clear skies
Temperature Dewpoint
19°C / 66°F 12°C / 54°F
Humidity Altimeter Pressure
64% 30.12" Hg 1020 hPa